createdAt,value
2018-06-04T00:00:34.998Z,18.40
2018-06-04T00:03:04.821Z,18.60
2018-06-04T00:05:34.463Z,18.17
2018-06-04T00:08:04.229Z,17.70
2018-06-04T00:10:33.868Z,18.27
2018-06-04T00:13:03.764Z,17.67
2018-06-04T00:15:33.425Z,18.90
2018-06-04T00:18:03.260Z,18.23
2018-06-04T00:20:32.961Z,18.13
2018-06-04T00:23:02.657Z,19.27
2018-06-04T00:25:32.372Z,19.70
2018-06-04T00:28:02.221Z,18.73
2018-06-04T00:30:31.858Z,19.27
2018-06-04T00:33:01.543Z,20.03
2018-06-04T00:35:31.308Z,20.30
2018-06-04T00:38:01.194Z,19.30
2018-06-04T00:40:30.936Z,20.57
2018-06-04T00:43:00.627Z,18.93
2018-06-04T00:45:30.304Z,19.00
2018-06-04T00:47:59.948Z,18.30
2018-06-04T00:50:29.579Z,18.23
2018-06-04T00:52:59.253Z,18.40
2018-06-04T00:55:28.961Z,18.87
2018-06-04T00:57:58.688Z,17.93
2018-06-04T01:00:28.305Z,17.47
2018-06-04T01:02:57.942Z,17.80
2018-06-04T01:05:28.111Z,18.67
2018-06-04T01:07:57.773Z,17.47
2018-06-04T01:10:27.488Z,17.97
2018-06-04T01:12:57.165Z,17.30
2018-06-04T01:15:27.043Z,19.73
2018-06-04T01:17:56.760Z,20.40
2018-06-04T01:20:26.494Z,20.17
2018-06-04T01:22:56.140Z,19.03
2018-06-04T01:25:25.774Z,18.73
2018-06-04T01:27:55.463Z,17.63
2018-06-04T01:30:25.127Z,17.03
2018-06-04T01:32:54.820Z,16.07
2018-06-04T01:35:24.486Z,16.30
2018-06-04T01:37:54.172Z,15.80
2018-06-04T01:40:23.914Z,17.40
2018-06-04T01:42:53.589Z,17.20
2018-06-04T01:45:26.130Z,16.97
2018-06-04T01:47:55.807Z,16.87
2018-06-04T01:50:25.493Z,16.80
2018-06-04T01:52:55.275Z,15.73
2018-06-04T01:55:24.889Z,15.00
2018-06-04T01:57:54.572Z,15.60
2018-06-04T02:00:24.276Z,15.43
2018-06-04T02:02:53.971Z,16.80
2018-06-04T02:05:23.584Z,17.77
2018-06-04T02:07:53.239Z,17.47
2018-06-04T02:10:22.894Z,17.23
2018-06-04T02:12:52.582Z,18.70
2018-06-04T02:15:22.266Z,19.03
2018-06-04T02:17:51.969Z,18.97
2018-06-04T02:20:21.603Z,19.33
2018-06-04T02:22:51.268Z,21.10
2018-06-04T02:25:20.923Z,21.70
2018-06-04T02:27:50.544Z,20.60
2018-06-04T02:30:20.167Z,21.40
2018-06-04T02:32:49.816Z,22.13
2018-06-04T02:35:19.479Z,21.90
2018-06-04T02:37:49.113Z,22.00
2018-06-04T02:40:18.826Z,21.67
2018-06-04T02:42:48.562Z,22.67
2018-06-04T02:45:18.266Z,22.30
2018-06-04T02:47:47.972Z,23.53
2018-06-04T02:50:17.691Z,24.57
2018-06-04T02:52:47.299Z,25.30
2018-06-04T02:55:16.909Z,26.43
2018-06-04T02:57:46.561Z,26.10
2018-06-04T03:00:16.313Z,25.73
2018-06-04T03:02:46.024Z,29.57
2018-06-04T03:05:15.697Z,28.60
2018-06-04T03:07:45.351Z,27.77
2018-06-04T03:10:14.969Z,29.87
2018-06-04T03:12:44.676Z,30.00
2018-06-04T03:15:14.596Z,31.43
2018-06-04T03:17:44.331Z,31.40
2018-06-04T03:20:13.971Z,30.43
2018-06-04T03:22:43.657Z,30.57
2018-06-04T03:25:13.324Z,33.03
2018-06-04T03:27:43.105Z,31.87
2018-06-04T03:30:12.781Z,32.63
2018-06-04T03:32:42.382Z,32.50
2018-06-04T03:35:12.090Z,32.93
2018-06-04T03:37:41.727Z,33.47
2018-06-04T03:40:11.485Z,33.70
2018-06-04T03:42:41.203Z,33.63
2018-06-04T03:45:11.722Z,33.90
2018-06-04T03:47:41.423Z,34.03
2018-06-04T03:50:11.148Z,34.80
2018-06-04T03:52:40.837Z,34.47
2018-06-04T03:55:10.585Z,35.83
2018-06-04T03:57:40.251Z,36.60
2018-06-04T04:00:09.949Z,34.30
2018-06-04T04:02:39.589Z,35.50
2018-06-04T04:05:09.297Z,34.30
2018-06-04T04:07:38.929Z,35.10
2018-06-04T04:10:08.603Z,34.97
2018-06-04T04:12:38.313Z,35.43
2018-06-04T04:15:07.903Z,35.23
2018-06-04T04:17:37.615Z,37.00
2018-06-04T04:20:07.339Z,36.57
2018-06-04T04:22:37.009Z,35.07
2018-06-04T04:25:06.730Z,34.73
2018-06-04T04:27:36.365Z,35.63
2018-06-04T04:30:06.609Z,34.83
2018-06-04T04:32:36.353Z,33.70
2018-06-04T04:35:06.011Z,32.90
2018-06-04T04:37:35.721Z,33.07
2018-06-04T04:40:05.548Z,32.77
2018-06-04T04:42:35.279Z,30.97
2018-06-04T04:45:05.071Z,32.80
2018-06-04T04:47:34.811Z,31.20
2018-06-04T04:50:04.610Z,30.87
2018-06-04T04:52:34.223Z,31.37
2018-06-04T04:55:03.889Z,28.93
2018-06-04T04:57:33.803Z,29.40
2018-06-04T05:00:10.304Z,28.83
2018-06-04T05:02:39.975Z,28.57
2018-06-04T05:05:09.678Z,28.27
2018-06-04T05:07:39.426Z,28.30
2018-06-04T05:10:09.064Z,27.43
2018-06-04T05:12:38.736Z,25.97
2018-06-04T05:15:08.391Z,26.50
2018-06-04T05:17:38.029Z,26.70
2018-06-04T05:20:08.011Z,24.27
2018-06-04T05:22:37.671Z,25.20
2018-06-04T05:25:07.362Z,24.53
2018-06-04T05:27:37.099Z,25.37
2018-06-04T05:30:06.760Z,24.63
2018-06-04T05:32:36.967Z,25.13
2018-06-04T05:35:06.709Z,24.50
2018-06-04T05:37:36.441Z,24.03
2018-06-04T05:40:06.199Z,22.73
2018-06-04T05:42:35.820Z,22.03
2018-06-04T05:48:00.539Z,22.25
2018-06-04T05:50:30.346Z,20.87
2018-06-04T05:53:00.142Z,20.60
2018-06-04T05:55:29.914Z,20.90
2018-06-04T05:57:59.614Z,21.75
2018-06-04T06:00:29.246Z,19.10
2018-06-04T06:02:58.921Z,20.87
2018-06-04T06:05:29.028Z,20.73
2018-06-04T06:07:58.754Z,20.43
2018-06-04T06:10:28.428Z,19.67
2018-06-04T06:12:58.228Z,19.07
2018-06-04T06:15:27.883Z,20.53
2018-06-04T06:17:57.484Z,18.30
2018-06-04T06:20:27.099Z,17.93
2018-06-04T06:22:56.882Z,18.67
2018-06-04T06:25:26.694Z,17.63
2018-06-04T06:27:56.344Z,18.60
2018-06-04T06:30:26.081Z,19.55
2018-06-04T06:32:55.872Z,18.80
2018-06-04T06:35:25.591Z,18.50
2018-06-04T06:37:55.401Z,18.80
2018-06-04T06:40:25.271Z,18.65
2018-06-04T06:42:54.954Z,17.93
2018-06-04T06:45:24.635Z,18.00
2018-06-04T06:47:54.340Z,18.80
2018-06-04T06:50:24.036Z,19.23
2018-06-04T06:52:53.778Z,19.92
2018-06-04T06:55:23.527Z,18.57
2018-06-04T06:57:53.177Z,17.70
2018-06-04T07:00:22.886Z,19.07
2018-06-04T07:02:52.544Z,17.40
2018-06-04T07:05:22.236Z,19.80
2018-06-04T07:07:51.932Z,18.87
2018-06-04T07:10:21.651Z,19.23
2018-06-04T07:12:51.296Z,19.13
2018-06-04T07:15:21.103Z,18.90
2018-06-04T07:17:50.912Z,18.10
2018-06-04T07:20:20.727Z,17.83
2018-06-04T07:22:50.486Z,20.73
2018-06-04T07:25:20.224Z,19.10
2018-06-04T07:27:49.857Z,19.47
2018-06-04T07:30:19.523Z,19.53
2018-06-04T07:32:49.226Z,19.60
2018-06-04T07:35:19.021Z,17.10
2018-06-04T07:37:48.787Z,18.33
2018-06-04T07:40:18.513Z,19.73
2018-06-04T07:42:48.318Z,17.77
2018-06-04T07:45:17.995Z,20.90
2018-06-04T07:47:48.414Z,19.93
2018-06-04T07:50:19.321Z,20.57
2018-06-04T07:52:49.084Z,20.07
2018-06-04T07:55:18.760Z,21.30
2018-06-04T07:57:48.466Z,21.67
2018-06-04T08:00:18.173Z,21.33
2018-06-04T08:02:47.818Z,21.90
2018-06-04T08:05:17.514Z,21.73
2018-06-04T08:07:47.242Z,21.60
2018-06-04T08:10:16.992Z,21.13
2018-06-04T08:12:46.727Z,21.97
2018-06-04T08:15:16.423Z,21.43
2018-06-04T08:17:46.516Z,23.17
2018-06-04T08:20:16.195Z,23.10
2018-06-04T08:22:45.965Z,20.10
2018-06-04T08:25:15.744Z,20.97
2018-06-04T08:27:45.571Z,19.73
2018-06-04T08:30:15.233Z,21.03
2018-06-04T08:32:45.026Z,22.47
2018-06-04T08:35:14.871Z,21.00
2018-06-04T08:37:44.710Z,20.83
2018-06-04T08:40:14.711Z,19.20
2018-06-04T08:42:44.394Z,19.27
2018-06-04T08:45:14.367Z,18.80
2018-06-04T08:47:44.263Z,17.63
2018-06-04T08:50:14.073Z,17.97
2018-06-04T08:52:43.808Z,19.00
2018-06-04T08:55:13.668Z,18.17
2018-06-04T08:57:43.485Z,17.40
2018-06-04T09:00:13.184Z,15.78
2018-06-04T09:02:42.969Z,14.10
2018-06-04T09:05:12.732Z,12.93
2018-06-04T09:07:42.423Z,11.88
2018-06-04T09:10:12.142Z,11.60
2018-06-04T09:12:41.844Z,13.07
2018-06-04T09:15:11.583Z,15.80
2018-06-04T09:17:59.265Z,15.73
2018-06-04T09:20:29.264Z,13.63
2018-06-04T09:22:59.081Z,12.60
2018-06-04T09:25:28.872Z,13.37
2018-06-04T09:27:58.521Z,15.80
2018-06-04T09:30:28.287Z,14.63
2018-06-04T09:32:57.967Z,16.87
2018-06-04T09:35:27.894Z,16.80
2018-06-04T09:37:57.580Z,17.83
2018-06-04T09:40:27.356Z,15.03
2018-06-04T09:42:57.128Z,17.50
2018-06-04T09:45:26.814Z,19.00
2018-06-04T09:47:56.530Z,20.07
2018-06-04T09:50:26.317Z,15.13
2018-06-04T09:52:56.072Z,14.60
2018-06-04T09:55:25.784Z,14.80
2018-06-04T09:57:55.556Z,16.97
2018-06-04T10:00:30.547Z,15.33
2018-06-04T10:03:00.280Z,14.27
2018-06-04T10:05:30.199Z,14.13
2018-06-04T10:08:00.160Z,15.10
2018-06-04T10:10:29.817Z,12.67
2018-06-04T10:12:59.630Z,41.57
2018-06-04T10:15:29.421Z,15.80
2018-06-04T10:17:59.269Z,14.38
2018-06-04T10:20:29.277Z,16.40
2018-06-04T10:22:59.044Z,15.90
2018-06-04T10:25:28.849Z,18.13
2018-06-04T10:27:58.607Z,18.23
2018-06-04T10:30:28.540Z,16.48
2018-06-04T10:32:58.458Z,17.63
2018-06-04T10:35:28.199Z,19.10
2018-06-04T10:37:57.919Z,18.03
2018-06-04T10:40:27.700Z,17.27
2018-06-04T10:42:57.447Z,18.50
2018-06-04T10:45:27.197Z,19.17
2018-06-04T10:47:57.033Z,21.23
2018-06-04T10:50:26.822Z,16.42
2018-06-04T10:52:56.677Z,18.50
2018-06-04T10:55:26.418Z,16.85
2018-06-04T10:57:56.201Z,17.20
2018-06-04T11:00:25.947Z,19.57
2018-06-04T11:02:55.670Z,19.60
2018-06-04T11:05:25.358Z,18.23
2018-06-04T11:07:55.090Z,17.40
2018-06-04T11:10:24.910Z,17.90
2018-06-04T11:12:54.703Z,16.57
2018-06-04T11:15:24.640Z,15.30
2018-06-04T11:17:54.515Z,15.00
2018-06-04T11:20:24.256Z,13.40
2018-06-04T11:22:53.938Z,13.18
2018-06-04T11:25:23.683Z,13.10
2018-06-04T11:27:53.618Z,15.00
2018-06-04T11:30:23.484Z,13.83
2018-06-04T11:32:53.237Z,14.83
2018-06-04T11:35:23.036Z,13.28
2018-06-04T11:37:52.787Z,14.28
2018-06-04T11:40:22.540Z,13.98
2018-06-04T11:42:52.272Z,13.25
2018-06-04T11:45:21.909Z,13.48
2018-06-04T11:47:51.672Z,14.50
2018-06-04T11:50:21.383Z,15.40
2018-06-04T11:52:51.133Z,14.40
2018-06-04T11:55:20.812Z,14.20
2018-06-04T11:57:50.469Z,16.20
2018-06-04T12:00:20.170Z,17.63
2018-06-04T12:02:49.905Z,16.97
2018-06-04T12:05:19.669Z,15.67
2018-06-04T12:07:49.377Z,12.33
2018-06-04T12:10:19.134Z,12.50
2018-06-04T12:12:48.813Z,9.90
2018-06-04T12:15:18.513Z,7.37
2018-06-04T12:17:48.285Z,7.83
2018-06-04T12:20:17.921Z,10.03
2018-06-04T12:22:47.604Z,10.10
2018-06-04T12:25:17.362Z,10.57
2018-06-04T12:27:47.593Z,10.63
2018-06-04T12:30:17.384Z,9.90
2018-06-04T12:32:47.105Z,11.10
2018-06-04T12:35:16.739Z,14.07
2018-06-04T12:37:46.441Z,12.57
2018-06-04T12:40:16.184Z,12.80
2018-06-04T12:42:45.946Z,10.75
2018-06-04T12:45:15.651Z,11.15
2018-06-04T12:47:45.332Z,12.80
2018-06-04T12:50:15.012Z,12.93
2018-06-04T12:52:44.726Z,16.03
2018-06-04T12:55:14.442Z,16.60
2018-06-04T12:57:44.151Z,15.13
2018-06-04T13:00:13.936Z,16.07
2018-06-04T13:02:43.639Z,13.93
2018-06-04T13:05:13.335Z,14.67
2018-06-04T13:07:43.146Z,14.77
2018-06-04T13:10:12.991Z,14.80
2018-06-04T13:12:42.776Z,12.47
2018-06-04T13:15:12.507Z,13.07
2018-06-04T13:17:43.645Z,12.83
2018-06-04T13:20:19.733Z,14.20
2018-06-04T13:22:49.417Z,12.33
2018-06-04T13:25:19.201Z,13.30
2018-06-04T13:27:48.849Z,13.13
2018-06-04T13:30:18.676Z,11.83
2018-06-04T13:32:48.405Z,10.03
2018-06-04T13:35:18.209Z,11.67
2018-06-04T13:37:47.972Z,10.10
2018-06-04T13:40:17.805Z,10.87
2018-06-04T13:42:47.665Z,11.33
2018-06-04T13:45:17.354Z,9.80
2018-06-04T13:47:47.086Z,9.77
2018-06-04T13:50:16.938Z,9.47
2018-06-04T13:52:46.706Z,11.70
2018-06-04T13:55:16.430Z,11.27
2018-06-04T13:57:46.157Z,12.03
2018-06-04T14:00:16.341Z,9.47
2018-06-04T14:02:46.489Z,9.03
2018-06-04T14:05:16.307Z,7.77
2018-06-04T14:07:46.041Z,8.17
2018-06-04T14:10:19.493Z,8.13
2018-06-04T14:12:49.217Z,7.97
2018-06-04T14:15:19.081Z,8.90
2018-06-04T14:17:48.857Z,8.33
2018-06-04T14:20:18.665Z,7.40
2018-06-04T14:22:48.400Z,7.33
2018-06-04T14:25:18.028Z,7.27
2018-06-04T14:27:47.705Z,6.90
2018-06-04T14:30:17.383Z,6.10
2018-06-04T14:32:47.413Z,6.50
2018-06-04T14:35:17.146Z,6.77
2018-06-04T14:37:46.901Z,5.90
2018-06-04T14:40:16.557Z,5.17
2018-06-04T14:42:46.256Z,5.13
2018-06-04T14:45:15.883Z,4.80
2018-06-04T14:47:45.631Z,4.83
2018-06-04T14:50:15.266Z,4.53
2018-06-04T14:52:44.980Z,4.43
2018-06-04T14:55:14.677Z,4.37
2018-06-04T14:57:44.368Z,4.10
2018-06-04T15:00:14.057Z,4.53
2018-06-04T15:02:43.761Z,4.33
2018-06-04T15:05:13.500Z,4.57
2018-06-04T15:07:43.911Z,5.13
2018-06-04T15:10:13.624Z,4.50
2018-06-04T15:12:43.267Z,4.47
2018-06-04T15:15:12.936Z,4.00
2018-06-04T15:17:43.348Z,4.40
2018-06-04T15:20:13.089Z,4.70
2018-06-04T15:22:42.776Z,5.90
2018-06-04T15:25:12.485Z,4.70
2018-06-04T15:27:42.118Z,5.47
2018-06-04T15:30:11.807Z,5.40
2018-06-04T15:32:41.484Z,5.47
2018-06-04T15:35:11.263Z,5.90
2018-06-04T15:37:41.147Z,6.40
2018-06-04T15:40:12.231Z,6.47
2018-06-04T15:42:42.138Z,6.40
2018-06-04T15:45:11.826Z,6.17
2018-06-04T15:47:44.728Z,6.57
2018-06-04T15:50:14.523Z,7.53
2018-06-04T15:52:44.309Z,7.03
2018-06-04T15:55:14.011Z,8.57
2018-06-04T15:57:43.656Z,7.80
2018-06-04T16:00:13.531Z,9.27
2018-06-04T16:02:43.331Z,8.90
2018-06-04T16:05:13.071Z,7.83
2018-06-04T16:07:42.828Z,8.67
2018-06-04T16:10:12.945Z,8.17
2018-06-04T16:12:43.730Z,8.10
2018-06-04T16:15:13.532Z,8.50
2018-06-04T16:17:43.259Z,7.80
2018-06-04T16:20:13.021Z,7.00
2018-06-04T16:22:42.766Z,5.90
2018-06-04T16:25:12.487Z,5.70
2018-06-04T16:27:43.184Z,5.20
2018-06-04T16:30:12.900Z,5.20
2018-06-04T16:32:42.620Z,5.53
2018-06-04T16:35:12.334Z,5.90
2018-06-04T16:37:42.102Z,5.90
2018-06-04T16:40:11.858Z,5.90
2018-06-04T16:42:41.609Z,5.67
2018-06-04T16:45:11.368Z,5.17
2018-06-04T16:47:41.168Z,5.57
2018-06-04T16:50:10.998Z,5.60
2018-06-04T16:52:41.784Z,5.70
2018-06-04T16:55:11.575Z,6.13
2018-06-04T16:57:41.334Z,5.63
2018-06-04T17:00:11.071Z,5.07
2018-06-04T17:02:40.859Z,5.47
2018-06-04T17:05:10.693Z,5.80
2018-06-04T17:07:41.510Z,5.90
2018-06-04T17:10:11.215Z,5.83
2018-06-04T17:12:41.203Z,5.77
2018-06-04T17:15:11.010Z,6.03
2018-06-04T17:17:42.724Z,6.87
2018-06-04T17:20:12.467Z,6.50
2018-06-04T17:22:42.337Z,6.47
2018-06-04T17:25:12.042Z,5.70
2018-06-04T17:27:41.704Z,5.70
2018-06-04T17:30:11.539Z,4.90
2018-06-04T17:32:40.532Z,5.20
2018-06-04T17:35:10.250Z,4.50
2018-06-04T17:37:40.334Z,5.13
2018-06-04T17:40:10.125Z,5.53
2018-06-04T17:42:39.932Z,4.97
2018-06-04T17:45:09.666Z,5.33
2018-06-04T17:47:39.394Z,5.77
2018-06-04T17:50:09.322Z,5.03
2018-06-04T17:52:39.417Z,4.67
2018-06-04T17:55:09.644Z,4.67
2018-06-04T17:57:39.497Z,5.10
2018-06-04T18:00:09.267Z,4.53
2018-06-04T18:03:44.261Z,4.60
2018-06-04T18:06:14.358Z,5.13
2018-06-04T18:08:44.109Z,5.20
2018-06-04T18:11:13.850Z,4.83
2018-06-04T18:13:43.591Z,4.83
2018-06-04T18:16:13.218Z,4.83
2018-06-04T18:18:42.947Z,5.03
2018-06-04T18:21:13.015Z,5.33
2018-06-04T18:23:42.746Z,4.60
2018-06-04T18:26:12.398Z,5.43
2018-06-04T18:28:42.404Z,4.97
2018-06-04T18:31:12.045Z,5.20
2018-06-04T18:33:41.760Z,5.40
2018-06-04T18:36:11.489Z,5.03
2018-06-04T18:38:41.239Z,5.20
2018-06-04T18:41:10.954Z,4.73
2018-06-04T18:43:40.806Z,5.60
2018-06-04T18:46:10.515Z,5.30
2018-06-04T18:48:40.153Z,5.60
2018-06-04T18:51:09.913Z,5.30
2018-06-04T18:53:39.571Z,5.03
2018-06-04T18:56:09.303Z,5.03
2018-06-04T18:58:38.984Z,5.10
2018-06-04T19:01:08.712Z,4.73
2018-06-04T19:03:37.730Z,4.50
2018-06-04T19:06:07.448Z,5.03
2018-06-04T19:08:37.258Z,4.87
2018-06-04T19:11:07.023Z,4.60
2018-06-04T19:13:37.099Z,4.57
2018-06-04T19:16:06.777Z,4.83
2018-06-04T19:18:36.463Z,6.17
2018-06-04T19:21:06.185Z,6.03
2018-06-04T19:23:35.296Z,5.63
2018-06-04T19:26:05.010Z,5.70
2018-06-04T19:28:34.676Z,5.87
2018-06-04T19:31:04.401Z,6.03
2018-06-04T19:33:34.142Z,5.70
2018-06-04T19:36:03.922Z,5.57
2018-06-04T19:38:33.569Z,6.30
2018-06-04T19:41:03.249Z,6.20
2018-06-04T19:43:32.959Z,5.70
2018-06-04T19:46:02.894Z,6.20
2018-06-04T19:48:32.531Z,6.10
2018-06-04T19:51:02.131Z,6.10
2018-06-04T19:53:31.828Z,7.10
2018-06-04T19:56:01.772Z,6.70
2018-06-04T19:58:31.482Z,7.80
2018-06-04T20:01:01.289Z,7.57
2018-06-04T20:03:30.921Z,8.80
2018-06-04T20:06:00.722Z,8.27
2018-06-04T20:08:30.415Z,7.40
2018-06-04T20:11:00.203Z,7.03
2018-06-04T20:13:29.933Z,5.73
2018-06-04T20:15:59.681Z,5.50
2018-06-04T20:18:29.448Z,5.60
2018-06-04T20:20:59.070Z,5.77
2018-06-04T20:23:28.761Z,5.77
2018-06-04T20:25:58.455Z,5.80
2018-06-04T20:28:28.102Z,5.67
2018-06-04T20:30:57.780Z,5.80
2018-06-04T20:33:27.405Z,5.90
2018-06-04T20:35:57.123Z,5.87
2018-06-04T20:38:26.860Z,6.23
2018-06-04T20:40:56.503Z,5.70
2018-06-04T20:43:26.290Z,5.97
2018-06-04T20:45:56.000Z,5.97
2018-06-04T20:48:25.816Z,5.80
2018-06-04T20:50:55.566Z,5.50
2018-06-04T20:53:25.324Z,5.50
2018-06-04T20:55:55.016Z,5.20
2018-06-04T20:58:24.723Z,4.60
2018-06-04T21:00:54.335Z,5.30
2018-06-04T21:03:23.992Z,5.13
2018-06-04T21:05:53.676Z,5.20
2018-06-04T21:08:23.417Z,5.60
2018-06-04T21:10:53.101Z,5.33
2018-06-04T21:13:22.840Z,5.50
2018-06-04T21:15:52.503Z,5.27
2018-06-04T21:18:22.240Z,5.60
2018-06-04T21:20:51.871Z,5.37
2018-06-04T21:23:20.909Z,5.50
2018-06-04T21:25:50.592Z,5.17
2018-06-04T21:28:20.239Z,5.50
2018-06-04T21:30:49.898Z,5.90
2018-06-04T21:33:19.582Z,5.33
2018-06-04T21:35:49.236Z,5.57
2018-06-04T21:38:18.958Z,5.57
2018-06-04T21:40:48.627Z,5.60
2018-06-04T21:43:18.347Z,5.20
2018-06-04T21:45:47.938Z,5.47
2018-06-04T21:48:17.593Z,6.17
2018-06-04T21:50:47.302Z,6.10
2018-06-04T21:53:16.977Z,6.57
2018-06-04T21:55:46.670Z,5.73
2018-06-04T21:58:16.337Z,6.83
2018-06-04T22:00:46.080Z,6.97
2018-06-04T22:03:15.829Z,7.23
2018-06-04T22:05:45.483Z,6.43
2018-06-04T22:08:15.178Z,6.60
2018-06-04T22:10:44.827Z,6.80
2018-06-04T22:13:14.478Z,6.83
2018-06-04T22:15:44.274Z,6.73
2018-06-04T22:18:13.982Z,6.10
2018-06-04T22:20:43.688Z,6.50
2018-06-04T22:23:13.404Z,6.47
2018-06-04T22:25:43.091Z,6.57
2018-06-04T22:28:12.783Z,6.27
2018-06-04T22:30:42.489Z,6.07
2018-06-04T22:33:12.195Z,6.27
2018-06-04T22:35:41.837Z,6.87
2018-06-04T22:38:11.612Z,7.63
2018-06-04T22:40:41.389Z,7.77
2018-06-04T22:43:11.033Z,8.20
2018-06-04T22:45:40.836Z,7.60
2018-06-04T22:48:10.514Z,8.27
2018-06-04T22:50:40.326Z,8.43
2018-06-04T22:53:09.958Z,9.97
2018-06-04T22:55:39.672Z,8.83
2018-06-04T22:58:09.364Z,9.63
2018-06-04T23:00:39.034Z,9.17
2018-06-04T23:03:08.686Z,9.87
2018-06-04T23:05:38.446Z,9.03
2018-06-04T23:08:08.109Z,9.33
2018-06-04T23:10:37.853Z,9.83
2018-06-04T23:13:07.560Z,9.97
2018-06-04T23:15:37.193Z,9.37
2018-06-04T23:18:06.888Z,8.23
2018-06-04T23:20:36.552Z,7.27
2018-06-04T23:23:06.270Z,7.17
2018-06-04T23:25:35.910Z,6.40
2018-06-04T23:28:05.560Z,6.13
2018-06-04T23:30:35.326Z,6.03
2018-06-04T23:33:04.975Z,5.90
2018-06-04T23:35:34.725Z,6.27
2018-06-04T23:38:04.445Z,6.47
2018-06-04T23:40:34.063Z,5.70
2018-06-04T23:43:03.790Z,6.07
2018-06-04T23:45:33.433Z,6.30
2018-06-04T23:48:03.131Z,6.17
2018-06-04T23:50:32.784Z,6.00
2018-06-04T23:53:02.348Z,6.33
2018-06-04T23:55:32.025Z,5.73
2018-06-04T23:58:01.970Z,6.17
